sensor_id;sensor_type;location;lat;lon;timestamp;P1;durP1;ratioP1;P2;durP2;ratioP2
21543;SDS011;10933;50.754;11.508;2023-07-31T00:01:49;2.75;;;1.42;;
21543;SDS011;10933;50.754;11.508;2023-07-31T00:04:15;1.60;;;1.50;;
21543;SDS011;10933;50.754;11.508;2023-07-31T00:06:41;1.73;;;1.63;;
21543;SDS011;10933;50.754;11.508;2023-07-31T00:09:07;1.75;;;1.65;;
21543;SDS011;10933;50.754;11.508;2023-07-31T00:11:33;3.17;;;1.92;;
21543;SDS011;10933;50.754;11.508;2023-07-31T00:13:59;2.00;;;1.80;;
21543;SDS011;10933;50.754;11.508;2023-07-31T00:16:25;1.90;;;1.38;;
21543;SDS011;10933;50.754;11.508;2023-07-31T00:18:52;2.15;;;1.40;;
21543;SDS011;10933;50.754;11.508;2023-07-31T00:21:18;2.17;;;1.63;;
21543;SDS011;10933;50.754;11.508;2023-07-31T00:23:44;1.48;;;1.38;;
21543;SDS011;10933;50.754;11.508;2023-07-31T00:26:10;1.55;;;1.35;;
21543;SDS011;10933;50.754;11.508;2023-07-31T00:28:36;1.70;;;1.60;;
21543;SDS011;10933;50.754;11.508;2023-07-31T00:31:02;1.52;;;1.42;;
21543;SDS011;10933;50.754;11.508;2023-07-31T00:33:31;1.65;;;1.45;;
21543;SDS011;10933;50.754;11.508;2023-07-31T00:35:59;1.73;;;1.48;;
21543;SDS011;10933;50.754;11.508;2023-07-31T00:38:25;1.80;;;1.70;;
21543;SDS011;10933;50.754;11.508;2023-07-31T00:40:51;1.30;;;1.20;;
21543;SDS011;10933;50.754;11.508;2023-07-31T00:43:17;2.05;;;1.88;;
21543;SDS011;10933;50.754;11.508;2023-07-31T00:45:43;2.15;;;1.88;;
21543;SDS011;10933;50.754;11.508;2023-07-31T00:48:10;1.40;;;1.30;;
21543;SDS011;10933;50.754;11.508;2023-07-31T00:50:36;8.25;;;1.83;;
21543;SDS011;10933;50.754;11.508;2023-07-31T00:53:03;1.63;;;1.52;;
21543;SDS011;10933;50.754;11.508;2023-07-31T00:55:30;6.90;;;1.88;;
21543;SDS011;10933;50.754;11.508;2023-07-31T00:57:56;2.80;;;1.52;;
21543;SDS011;10933;50.754;11.508;2023-07-31T01:00:22;1.88;;;1.77;;
21543;SDS011;10933;50.754;11.508;2023-07-31T01:02:49;1.83;;;1.60;;
21543;SDS011;10933;50.754;11.508;2023-07-31T01:05:15;2.10;;;1.92;;
21543;SDS011;10933;50.754;11.508;2023-07-31T01:07:51;2.17;;;1.98;;
21543;SDS011;10933;50.754;11.508;2023-07-31T01:10:28;4.60;;;1.98;;
21543;SDS011;10933;50.754;11.508;2023-07-31T01:13:02;1.85;;;1.60;;
21543;SDS011;10933;50.754;11.508;2023-07-31T01:15:29;2.00;;;1.80;;
21543;SDS011;10933;50.754;11.508;2023-07-31T01:17:55;1.70;;;1.60;;
21543;SDS011;10933;50.754;11.508;2023-07-31T01:20:22;4.18;;;1.50;;
21543;SDS011;10933;50.754;11.508;2023-07-31T01:25:36;1.73;;;1.50;;
21543;SDS011;10933;50.754;11.508;2023-07-31T01:28:14;2.00;;;1.80;;
21543;SDS011;10933;50.754;11.508;2023-07-31T01:30:48;2.42;;;2.22;;
21543;SDS011;10933;50.754;11.508;2023-07-31T01:33:17;2.10;;;1.55;;
21543;SDS011;10933;50.754;11.508;2023-07-31T01:35:44;2.20;;;1.98;;
21543;SDS011;10933;50.754;11.508;2023-07-31T01:38:11;2.05;;;1.65;;
21543;SDS011;10933;50.754;11.508;2023-07-31T01:40:41;1.98;;;1.52;;
21543;SDS011;10933;50.754;11.508;2023-07-31T01:43:07;1.85;;;1.58;;
21543;SDS011;10933;50.754;11.508;2023-07-31T01:45:34;1.60;;;1.50;;
21543;SDS011;10933;50.754;11.508;2023-07-31T01:48:00;2.13;;;1.92;;
21543;SDS011;10933;50.754;11.508;2023-07-31T01:50:26;1.90;;;1.75;;
21543;SDS011;10933;50.754;11.508;2023-07-31T01:52:52;3.13;;;2.05;;
21543;SDS011;10933;50.754;11.508;2023-07-31T01:55:18;1.85;;;1.75;;
21543;SDS011;10933;50.754;11.508;2023-07-31T01:57:44;2.97;;;1.48;;
21543;SDS011;10933;50.754;11.508;2023-07-31T02:00:10;1.60;;;1.50;;
21543;SDS011;10933;50.754;11.508;2023-07-31T02:02:36;2.33;;;1.73;;
21543;SDS011;10933;50.754;11.508;2023-07-31T02:05:03;1.80;;;1.70;;
21543;SDS011;10933;50.754;11.508;2023-07-31T02:07:29;5.20;;;1.73;;
21543;SDS011;10933;50.754;11.508;2023-07-31T02:09:55;2.20;;;1.98;;
21543;SDS011;10933;50.754;11.508;2023-07-31T02:12:21;2.42;;;2.22;;
21543;SDS011;10933;50.754;11.508;2023-07-31T02:14:47;4.82;;;1.98;;
21543;SDS011;10933;50.754;11.508;2023-07-31T02:17:13;1.73;;;1.63;;
21543;SDS011;10933;50.754;11.508;2023-07-31T02:19:39;3.63;;;2.05;;
21543;SDS011;10933;50.754;11.508;2023-07-31T02:22:06;1.88;;;1.77;;
21543;SDS011;10933;50.754;11.508;2023-07-31T02:24:32;2.03;;;1.77;;
21543;SDS011;10933;50.754;11.508;2023-07-31T02:26:58;1.92;;;1.70;;
21543;SDS011;10933;50.754;11.508;2023-07-31T02:29:24;2.00;;;1.90;;
21543;SDS011;10933;50.754;11.508;2023-07-31T02:31:50;2.30;;;1.85;;
21543;SDS011;10933;50.754;11.508;2023-07-31T02:34:16;3.15;;;1.60;;
21543;SDS011;10933;50.754;11.508;2023-07-31T02:36:42;2.13;;;1.88;;
21543;SDS011;10933;50.754;11.508;2023-07-31T02:39:08;2.20;;;2.10;;
21543;SDS011;10933;50.754;11.508;2023-07-31T02:41:34;2.80;;;2.13;;
21543;SDS011;10933;50.754;11.508;2023-07-31T02:44:00;1.90;;;1.80;;
21543;SDS011;10933;50.754;11.508;2023-07-31T02:46:27;2.40;;;2.20;;
21543;SDS011;10933;50.754;11.508;2023-07-31T02:48:53;2.50;;;2.30;;
21543;SDS011;10933;50.754;11.508;2023-07-31T02:51:19;2.40;;;2.17;;
21543;SDS011;10933;50.754;11.508;2023-07-31T02:53:46;1.95;;;1.85;;
21543;SDS011;10933;50.754;11.508;2023-07-31T02:56:13;2.22;;;1.80;;
21543;SDS011;10933;50.754;11.508;2023-07-31T02:58:39;4.22;;;2.05;;
21543;SDS011;10933;50.754;11.508;2023-07-31T03:01:05;2.78;;;1.92;;
21543;SDS011;10933;50.754;11.508;2023-07-31T03:03:31;2.30;;;2.10;;
21543;SDS011;10933;50.754;11.508;2023-07-31T03:05:57;2.33;;;2.08;;
21543;SDS011;10933;50.754;11.508;2023-07-31T03:08:23;2.33;;;2.13;;
21543;SDS011;10933;50.754;11.508;2023-07-31T03:10:49;2.28;;;2.17;;
21543;SDS011;10933;50.754;11.508;2023-07-31T03:13:15;1.63;;;1.52;;
21543;SDS011;10933;50.754;11.508;2023-07-31T03:15:42;3.22;;;2.17;;
21543;SDS011;10933;50.754;11.508;2023-07-31T03:18:08;2.45;;;2.25;;
21543;SDS011;10933;50.754;11.508;2023-07-31T03:20:34;2.63;;;2.40;;
21543;SDS011;10933;50.754;11.508;2023-07-31T03:23:00;2.85;;;2.35;;
21543;SDS011;10933;50.754;11.508;2023-07-31T03:25:27;2.55;;;2.35;;
21543;SDS011;10933;50.754;11.508;2023-07-31T03:27:53;2.15;;;1.90;;
21543;SDS011;10933;50.754;11.508;2023-07-31T03:30:19;2.15;;;2.03;;
21543;SDS011;10933;50.754;11.508;2023-07-31T03:32:45;2.53;;;2.30;;
21543;SDS011;10933;50.754;11.508;2023-07-31T03:35:11;4.05;;;2.42;;
21543;SDS011;10933;50.754;11.508;2023-07-31T03:37:37;2.70;;;2.47;;
21543;SDS011;10933;50.754;11.508;2023-07-31T03:40:03;3.00;;;2.40;;
21543;SDS011;10933;50.754;11.508;2023-07-31T03:42:30;3.47;;;2.88;;
21543;SDS011;10933;50.754;11.508;2023-07-31T03:44:56;2.55;;;2.38;;
21543;SDS011;10933;50.754;11.508;2023-07-31T03:47:22;2.90;;;2.70;;
21543;SDS011;10933;50.754;11.508;2023-07-31T03:49:48;3.38;;;2.58;;
21543;SDS011;10933;50.754;11.508;2023-07-31T03:52:14;2.65;;;2.45;;
21543;SDS011;10933;50.754;11.508;2023-07-31T03:54:40;3.22;;;2.88;;
21543;SDS011;10933;50.754;11.508;2023-07-31T03:57:09;2.45;;;2.25;;
21543;SDS011;10933;50.754;11.508;2023-07-31T03:59:36;2.80;;;2.60;;
21543;SDS011;10933;50.754;11.508;2023-07-31T04:02:04;3.30;;;3.10;;
21543;SDS011;10933;50.754;11.508;2023-07-31T04:04:30;2.78;;;2.58;;
21543;SDS011;10933;50.754;11.508;2023-07-31T04:06:56;2.95;;;2.72;;
21543;SDS011;10933;50.754;11.508;2023-07-31T04:09:22;3.75;;;2.65;;
21543;SDS011;10933;50.754;11.508;2023-07-31T04:11:48;3.30;;;3.00;;
21543;SDS011;10933;50.754;11.508;2023-07-31T04:14:14;3.10;;;2.58;;
21543;SDS011;10933;50.754;11.508;2023-07-31T04:16:41;2.90;;;2.60;;
21543;SDS011;10933;50.754;11.508;2023-07-31T04:19:07;3.88;;;2.58;;
21543;SDS011;10933;50.754;11.508;2023-07-31T04:21:35;2.53;;;2.33;;
21543;SDS011;10933;50.754;11.508;2023-07-31T04:24:01;3.83;;;2.42;;
21543;SDS011;10933;50.754;11.508;2023-07-31T04:26:27;4.22;;;3.22;;
21543;SDS011;10933;50.754;11.508;2023-07-31T04:28:53;2.92;;;2.72;;
21543;SDS011;10933;50.754;11.508;2023-07-31T04:31:19;2.80;;;2.60;;
21543;SDS011;10933;50.754;11.508;2023-07-31T04:33:46;3.03;;;2.78;;
21543;SDS011;10933;50.754;11.508;2023-07-31T04:36:12;3.05;;;2.80;;
21543;SDS011;10933;50.754;11.508;2023-07-31T04:38:38;3.08;;;2.85;;
21543;SDS011;10933;50.754;11.508;2023-07-31T04:41:04;4.32;;;2.80;;
21543;SDS011;10933;50.754;11.508;2023-07-31T04:43:30;3.05;;;2.75;;
21543;SDS011;10933;50.754;11.508;2023-07-31T04:45:56;3.17;;;2.80;;
21543;SDS011;10933;50.754;11.508;2023-07-31T04:48:23;3.35;;;3.10;;
21543;SDS011;10933;50.754;11.508;2023-07-31T04:50:49;2.72;;;2.63;;
21543;SDS011;10933;50.754;11.508;2023-07-31T04:53:15;3.00;;;2.80;;
21543;SDS011;10933;50.754;11.508;2023-07-31T04:55:41;2.83;;;2.60;;
21543;SDS011;10933;50.754;11.508;2023-07-31T04:58:07;2.50;;;2.40;;
21543;SDS011;10933;50.754;11.508;2023-07-31T05:00:33;2.83;;;2.63;;
21543;SDS011;10933;50.754;11.508;2023-07-31T05:02:59;2.83;;;2.63;;
21543;SDS011;10933;50.754;11.508;2023-07-31T05:05:25;3.22;;;3.00;;
21543;SDS011;10933;50.754;11.508;2023-07-31T05:07:51;3.15;;;2.95;;
21543;SDS011;10933;50.754;11.508;2023-07-31T05:10:18;2.90;;;2.70;;
21543;SDS011;10933;50.754;11.508;2023-07-31T05:12:44;3.60;;;2.85;;
21543;SDS011;10933;50.754;11.508;2023-07-31T05:15:10;3.42;;;3.13;;
21543;SDS011;10933;50.754;11.508;2023-07-31T05:17:36;2.67;;;2.47;;
21543;SDS011;10933;50.754;11.508;2023-07-31T05:20:02;3.92;;;2.67;;
21543;SDS011;10933;50.754;11.508;2023-07-31T05:22:28;3.00;;;2.80;;
21543;SDS011;10933;50.754;11.508;2023-07-31T05:24:54;3.10;;;2.83;;
21543;SDS011;10933;50.754;11.508;2023-07-31T05:27:21;3.03;;;2.70;;
21543;SDS011;10933;50.754;11.508;2023-07-31T05:29:47;3.28;;;2.50;;
21543;SDS011;10933;50.754;11.508;2023-07-31T05:32:13;3.65;;;3.38;;
21543;SDS011;10933;50.754;11.508;2023-07-31T05:34:39;3.08;;;2.58;;
21543;SDS011;10933;50.754;11.508;2023-07-31T05:37:05;2.85;;;2.65;;
21543;SDS011;10933;50.754;11.508;2023-07-31T05:39:31;3.13;;;2.83;;
21543;SDS011;10933;50.754;11.508;2023-07-31T05:41:57;2.60;;;2.50;;
21543;SDS011;10933;50.754;11.508;2023-07-31T05:44:23;2.70;;;2.50;;
21543;SDS011;10933;50.754;11.508;2023-07-31T05:46:49;4.88;;;2.80;;
21543;SDS011;10933;50.754;11.508;2023-07-31T05:49:16;2.75;;;2.55;;
21543;SDS011;10933;50.754;11.508;2023-07-31T05:51:42;2.60;;;2.40;;
21543;SDS011;10933;50.754;11.508;2023-07-31T05:54:08;2.75;;;2.55;;
21543;SDS011;10933;50.754;11.508;2023-07-31T05:56:34;2.80;;;2.60;;
21543;SDS011;10933;50.754;11.508;2023-07-31T05:59:00;2.53;;;2.33;;
21543;SDS011;10933;50.754;11.508;2023-07-31T06:01:27;2.70;;;2.50;;
21543;SDS011;10933;50.754;11.508;2023-07-31T06:03:53;2.83;;;2.60;;
21543;SDS011;10933;50.754;11.508;2023-07-31T06:06:20;2.47;;;2.28;;
21543;SDS011;10933;50.754;11.508;2023-07-31T06:08:46;3.35;;;2.53;;
21543;SDS011;10933;50.754;11.508;2023-07-31T06:11:12;2.85;;;2.65;;
21543;SDS011;10933;50.754;11.508;2023-07-31T06:13:38;2.42;;;2.33;;
21543;SDS011;10933;50.754;11.508;2023-07-31T06:16:04;2.70;;;2.47;;
21543;SDS011;10933;50.754;11.508;2023-07-31T06:18:34;2.65;;;2.45;;
21543;SDS011;10933;50.754;11.508;2023-07-31T06:21:00;2.70;;;2.50;;
21543;SDS011;10933;50.754;11.508;2023-07-31T06:23:26;2.40;;;2.20;;
21543;SDS011;10933;50.754;11.508;2023-07-31T06:25:52;2.60;;;2.40;;
21543;SDS011;10933;50.754;11.508;2023-07-31T06:28:19;2.80;;;2.60;;
21543;SDS011;10933;50.754;11.508;2023-07-31T06:30:45;2.63;;;2.42;;
21543;SDS011;10933;50.754;11.508;2023-07-31T06:33:11;2.50;;;2.30;;
21543;SDS011;10933;50.754;11.508;2023-07-31T06:35:37;4.35;;;2.47;;
21543;SDS011;10933;50.754;11.508;2023-07-31T06:38:03;2.42;;;2.10;;
21543;SDS011;10933;50.754;11.508;2023-07-31T06:40:29;4.65;;;2.05;;
21543;SDS011;10933;50.754;11.508;2023-07-31T06:42:56;1.65;;;1.55;;
21543;SDS011;10933;50.754;11.508;2023-07-31T06:45:22;2.45;;;1.83;;
21543;SDS011;10933;50.754;11.508;2023-07-31T06:47:48;2.28;;;2.08;;
21543;SDS011;10933;50.754;11.508;2023-07-31T06:50:14;1.55;;;1.45;;
21543;SDS011;10933;50.754;11.508;2023-07-31T06:52:40;1.50;;;1.33;;
21543;SDS011;10933;50.754;11.508;2023-07-31T06:55:16;1.13;;;1.13;;
21543;SDS011;10933;50.754;11.508;2023-07-31T06:57:44;2.88;;;1.77;;
21543;SDS011;10933;50.754;11.508;2023-07-31T07:00:10;1.80;;;1.60;;
21543;SDS011;10933;50.754;11.508;2023-07-31T07:02:37;3.08;;;1.58;;
21543;SDS011;10933;50.754;11.508;2023-07-31T07:05:03;2.15;;;1.73;;
21543;SDS011;10933;50.754;11.508;2023-07-31T07:07:29;2.03;;;1.33;;
21543;SDS011;10933;50.754;11.508;2023-07-31T07:09:55;1.55;;;1.45;;
21543;SDS011;10933;50.754;11.508;2023-07-31T07:12:21;2.25;;;1.30;;
21543;SDS011;10933;50.754;11.508;2023-07-31T07:14:47;1.48;;;1.35;;
21543;SDS011;10933;50.754;11.508;2023-07-31T07:17:13;2.70;;;1.42;;
21543;SDS011;10933;50.754;11.508;2023-07-31T07:19:40;1.92;;;1.67;;
21543;SDS011;10933;50.754;11.508;2023-07-31T07:22:07;1.67;;;1.52;;
21543;SDS011;10933;50.754;11.508;2023-07-31T07:24:33;2.80;;;1.77;;
21543;SDS011;10933;50.754;11.508;2023-07-31T07:26:59;1.67;;;1.30;;
21543;SDS011;10933;50.754;11.508;2023-07-31T07:29:25;2.08;;;1.50;;
21543;SDS011;10933;50.754;11.508;2023-07-31T07:31:51;1.40;;;1.30;;
21543;SDS011;10933;50.754;11.508;2023-07-31T07:34:17;1.70;;;1.55;;
21543;SDS011;10933;50.754;11.508;2023-07-31T07:36:43;2.72;;;1.60;;
21543;SDS011;10933;50.754;11.508;2023-07-31T07:39:10;1.40;;;1.30;;
21543;SDS011;10933;50.754;11.508;2023-07-31T07:41:36;2.35;;;1.75;;
21543;SDS011;10933;50.754;11.508;2023-07-31T07:44:02;1.77;;;1.27;;
21543;SDS011;10933;50.754;11.508;2023-07-31T07:46:28;1.27;;;1.17;;
21543;SDS011;10933;50.754;11.508;2023-07-31T07:48:54;1.98;;;1.50;;
21543;SDS011;10933;50.754;11.508;2023-07-31T07:51:20;1.95;;;1.25;;
21543;SDS011;10933;50.754;11.508;2023-07-31T07:53:47;1.50;;;1.40;;
21543;SDS011;10933;50.754;11.508;2023-07-31T07:56:13;2.28;;;1.80;;
21543;SDS011;10933;50.754;11.508;2023-07-31T07:58:39;2.75;;;1.60;;
21543;SDS011;10933;50.754;11.508;2023-07-31T08:01:05;1.50;;;1.40;;
21543;SDS011;10933;50.754;11.508;2023-07-31T08:03:31;1.90;;;1.30;;
21543;SDS011;10933;50.754;11.508;2023-07-31T08:05:58;1.52;;;1.42;;
21543;SDS011;10933;50.754;11.508;2023-07-31T08:08:24;2.78;;;1.20;;
21543;SDS011;10933;50.754;11.508;2023-07-31T08:10:51;1.45;;;1.33;;
21543;SDS011;10933;50.754;11.508;2023-07-31T08:13:17;3.47;;;1.20;;
21543;SDS011;10933;50.754;11.508;2023-07-31T08:15:43;2.47;;;1.67;;
21543;SDS011;10933;50.754;11.508;2023-07-31T08:18:09;1.30;;;1.15;;
21543;SDS011;10933;50.754;11.508;2023-07-31T08:20:38;1.50;;;1.38;;
21543;SDS011;10933;50.754;11.508;2023-07-31T08:23:04;6.75;;;6.25;;
21543;SDS011;10933;50.754;11.508;2023-07-31T08:25:30;1.80;;;1.35;;
21543;SDS011;10933;50.754;11.508;2023-07-31T08:28:00;2.05;;;1.38;;
21543;SDS011;10933;50.754;11.508;2023-07-31T08:30:27;1.55;;;1.45;;
21543;SDS011;10933;50.754;11.508;2023-07-31T08:32:54;1.77;;;1.40;;
21543;SDS011;10933;50.754;11.508;2023-07-31T08:35:20;1.52;;;1.02;;
21543;SDS011;10933;50.754;11.508;2023-07-31T08:37:46;2.03;;;1.30;;
21543;SDS011;10933;50.754;11.508;2023-07-31T08:40:12;1.63;;;1.40;;
21543;SDS011;10933;50.754;11.508;2023-07-31T08:42:45;1.80;;;1.30;;
21543;SDS011;10933;50.754;11.508;2023-07-31T08:45:15;1.95;;;1.20;;
21543;SDS011;10933;50.754;11.508;2023-07-31T08:47:44;1.60;;;1.13;;
21543;SDS011;10933;50.754;11.508;2023-07-31T08:50:12;1.67;;;1.30;;
21543;SDS011;10933;50.754;11.508;2023-07-31T08:52:39;2.03;;;1.25;;
21543;SDS011;10933;50.754;11.508;2023-07-31T08:55:06;2.47;;;1.40;;
21543;SDS011;10933;50.754;11.508;2023-07-31T08:57:37;1.60;;;1.50;;
21543;SDS011;10933;50.754;11.508;2023-07-31T09:00:04;1.30;;;1.20;;
21543;SDS011;10933;50.754;11.508;2023-07-31T09:05:29;2.70;;;1.38;;
21543;SDS011;10933;50.754;11.508;2023-07-31T09:07:56;1.73;;;1.60;;
21543;SDS011;10933;50.754;11.508;2023-07-31T09:10:23;2.33;;;1.60;;
21543;SDS011;10933;50.754;11.508;2023-07-31T09:12:52;2.20;;;2.00;;
21543;SDS011;10933;50.754;11.508;2023-07-31T09:15:19;2.58;;;1.65;;
21543;SDS011;10933;50.754;11.508;2023-07-31T09:17:46;1.90;;;1.75;;
21543;SDS011;10933;50.754;11.508;2023-07-31T09:20:13;2.33;;;1.55;;
21543;SDS011;10933;50.754;11.508;2023-07-31T09:22:41;1.80;;;1.70;;
21543;SDS011;10933;50.754;11.508;2023-07-31T09:28:04;1.80;;;1.70;;
21543;SDS011;10933;50.754;11.508;2023-07-31T09:30:30;2.00;;;1.67;;
21543;SDS011;10933;50.754;11.508;2023-07-31T09:33:05;1.70;;;1.38;;
21543;SDS011;10933;50.754;11.508;2023-07-31T09:35:34;1.88;;;1.75;;
21543;SDS011;10933;50.754;11.508;2023-07-31T09:38:03;2.85;;;1.25;;
21543;SDS011;10933;50.754;11.508;2023-07-31T09:40:35;1.42;;;1.33;;
21543;SDS011;10933;50.754;11.508;2023-07-31T09:43:03;1.48;;;1.38;;
21543;SDS011;10933;50.754;11.508;2023-07-31T09:45:33;1.63;;;1.13;;
21543;SDS011;10933;50.754;11.508;2023-07-31T09:48:01;3.22;;;1.60;;
21543;SDS011;10933;50.754;11.508;2023-07-31T09:50:27;2.50;;;1.40;;
21543;SDS011;10933;50.754;11.508;2023-07-31T09:52:54;2.55;;;1.45;;
21543;SDS011;10933;50.754;11.508;2023-07-31T09:55:20;1.33;;;1.23;;
21543;SDS011;10933;50.754;11.508;2023-07-31T09:57:48;1.70;;;1.60;;
21543;SDS011;10933;50.754;11.508;2023-07-31T10:00:16;4.50;;;1.40;;
21543;SDS011;10933;50.754;11.508;2023-07-31T10:02:46;1.48;;;1.33;;
21543;SDS011;10933;50.754;11.508;2023-07-31T10:05:15;2.05;;;1.42;;
21543;SDS011;10933;50.754;11.508;2023-07-31T10:07:43;1.65;;;1.50;;
21543;SDS011;10933;50.754;11.508;2023-07-31T10:10:22;1.27;;;1.17;;
21543;SDS011;10933;50.754;11.508;2023-07-31T10:12:49;3.53;;;1.40;;
21543;SDS011;10933;50.754;11.508;2023-07-31T10:15:17;1.58;;;1.48;;
21543;SDS011;10933;50.754;11.508;2023-07-31T10:17:46;1.98;;;1.63;;
21543;SDS011;10933;50.754;11.508;2023-07-31T10:20:14;1.75;;;1.65;;
21543;SDS011;10933;50.754;11.508;2023-07-31T10:22:44;1.30;;;1.20;;
21543;SDS011;10933;50.754;11.508;2023-07-31T10:25:11;1.42;;;1.30;;
21543;SDS011;10933;50.754;11.508;2023-07-31T10:27:40;1.50;;;1.40;;
21543;SDS011;10933;50.754;11.508;2023-07-31T10:30:08;1.90;;;1.80;;
21543;SDS011;10933;50.754;11.508;2023-07-31T10:32:47;1.77;;;1.38;;
21543;SDS011;10933;50.754;11.508;2023-07-31T10:35:15;1.73;;;1.50;;
21543;SDS011;10933;50.754;11.508;2023-07-31T10:37:42;1.98;;;1.55;;
21543;SDS011;10933;50.754;11.508;2023-07-31T10:40:10;1.92;;;1.48;;
21543;SDS011;10933;50.754;11.508;2023-07-31T10:42:55;1.98;;;1.50;;
21543;SDS011;10933;50.754;11.508;2023-07-31T10:48:14;1.42;;;1.17;;
21543;SDS011;10933;50.754;11.508;2023-07-31T10:50:48;2.03;;;1.65;;
21543;SDS011;10933;50.754;11.508;2023-07-31T10:56:11;1.73;;;1.40;;
21543;SDS011;10933;50.754;11.508;2023-07-31T10:58:39;1.92;;;1.38;;
21543;SDS011;10933;50.754;11.508;2023-07-31T11:01:08;1.70;;;1.60;;
21543;SDS011;10933;50.754;11.508;2023-07-31T11:06:08;1.55;;;1.45;;
21543;SDS011;10933;50.754;11.508;2023-07-31T11:08:35;1.60;;;1.50;;
21543;SDS011;10933;50.754;11.508;2023-07-31T11:11:14;1.50;;;1.38;;
21543;SDS011;10933;50.754;11.508;2023-07-31T11:16:15;1.20;;;1.10;;
21543;SDS011;10933;50.754;11.508;2023-07-31T11:18:43;2.88;;;1.83;;
21543;SDS011;10933;50.754;11.508;2023-07-31T11:21:28;2.75;;;1.23;;
21543;SDS011;10933;50.754;11.508;2023-07-31T11:23:57;2.08;;;1.83;;
21543;SDS011;10933;50.754;11.508;2023-07-31T11:26:24;1.77;;;1.40;;
21543;SDS011;10933;50.754;11.508;2023-07-31T11:28:50;1.60;;;1.50;;
21543;SDS011;10933;50.754;11.508;2023-07-31T11:31:17;1.67;;;1.40;;
21543;SDS011;10933;50.754;11.508;2023-07-31T11:33:44;1.52;;;1.40;;
21543;SDS011;10933;50.754;11.508;2023-07-31T11:36:20;1.85;;;1.58;;
21543;SDS011;10933;50.754;11.508;2023-07-31T11:38:46;1.50;;;1.27;;
21543;SDS011;10933;50.754;11.508;2023-07-31T11:41:16;2.88;;;1.60;;
21543;SDS011;10933;50.754;11.508;2023-07-31T11:43:42;1.60;;;1.50;;
21543;SDS011;10933;50.754;11.508;2023-07-31T11:46:08;1.75;;;1.58;;
21543;SDS011;10933;50.754;11.508;2023-07-31T11:48:36;2.00;;;1.75;;
21543;SDS011;10933;50.754;11.508;2023-07-31T11:51:06;3.60;;;1.48;;
21543;SDS011;10933;50.754;11.508;2023-07-31T11:53:51;1.77;;;1.67;;
21543;SDS011;10933;50.754;11.508;2023-07-31T11:56:21;1.65;;;1.55;;
21543;SDS011;10933;50.754;11.508;2023-07-31T11:58:53;1.77;;;1.30;;
21543;SDS011;10933;50.754;11.508;2023-07-31T12:01:24;1.83;;;1.27;;
21543;SDS011;10933;50.754;11.508;2023-07-31T12:03:55;2.03;;;1.70;;
21543;SDS011;10933;50.754;11.508;2023-07-31T12:06:31;1.95;;;1.52;;
21543;SDS011;10933;50.754;11.508;2023-07-31T12:09:04;2.13;;;1.98;;
21543;SDS011;10933;50.754;11.508;2023-07-31T12:11:30;3.33;;;2.33;;
21543;SDS011;10933;50.754;11.508;2023-07-31T12:14:07;2.65;;;1.42;;
21543;SDS011;10933;50.754;11.508;2023-07-31T12:16:34;2.33;;;2.13;;
21543;SDS011;10933;50.754;11.508;2023-07-31T12:19:00;1.70;;;1.60;;
21543;SDS011;10933;50.754;11.508;2023-07-31T12:21:27;1.98;;;1.35;;
21543;SDS011;10933;50.754;11.508;2023-07-31T12:23:53;2.15;;;1.30;;
21543;SDS011;10933;50.754;11.508;2023-07-31T12:26:19;1.20;;;1.10;;
21543;SDS011;10933;50.754;11.508;2023-07-31T12:31:19;1.20;;;1.10;;
21543;SDS011;10933;50.754;11.508;2023-07-31T12:33:48;2.45;;;1.50;;
21543;SDS011;10933;50.754;11.508;2023-07-31T12:36:16;1.73;;;1.45;;
21543;SDS011;10933;50.754;11.508;2023-07-31T12:38:44;1.30;;;1.13;;
21543;SDS011;10933;50.754;11.508;2023-07-31T12:41:11;1.45;;;1.35;;
21543;SDS011;10933;50.754;11.508;2023-07-31T12:43:37;1.70;;;1.13;;
21543;SDS011;10933;50.754;11.508;2023-07-31T12:46:05;1.30;;;1.20;;
21543;SDS011;10933;50.754;11.508;2023-07-31T12:48:35;1.38;;;1.27;;
21543;SDS011;10933;50.754;11.508;2023-07-31T12:51:02;1.88;;;1.65;;
21543;SDS011;10933;50.754;11.508;2023-07-31T12:53:29;1.25;;;1.13;;
21543;SDS011;10933;50.754;11.508;2023-07-31T12:55:55;1.55;;;1.42;;
21543;SDS011;10933;50.754;11.508;2023-07-31T12:58:22;1.45;;;1.33;;
21543;SDS011;10933;50.754;11.508;2023-07-31T13:00:48;1.30;;;1.20;;
21543;SDS011;10933;50.754;11.508;2023-07-31T13:03:14;1.73;;;1.63;;
21543;SDS011;10933;50.754;11.508;2023-07-31T13:05:42;2.05;;;1.80;;
21543;SDS011;10933;50.754;11.508;2023-07-31T13:08:08;8.40;;;1.75;;
21543;SDS011;10933;50.754;11.508;2023-07-31T13:10:34;3.92;;;1.20;;
21543;SDS011;10933;50.754;11.508;2023-07-31T13:13:00;1.35;;;1.25;;
21543;SDS011;10933;50.754;11.508;2023-07-31T13:15:26;3.30;;;1.20;;
21543;SDS011;10933;50.754;11.508;2023-07-31T13:17:52;1.30;;;1.20;;
21543;SDS011;10933;50.754;11.508;2023-07-31T13:20:18;1.30;;;1.20;;
21543;SDS011;10933;50.754;11.508;2023-07-31T13:22:44;1.50;;;1.40;;
21543;SDS011;10933;50.754;11.508;2023-07-31T13:25:10;1.75;;;1.60;;
21543;SDS011;10933;50.754;11.508;2023-07-31T13:27:36;1.48;;;1.33;;
21543;SDS011;10933;50.754;11.508;2023-07-31T13:30:03;1.40;;;1.30;;
21543;SDS011;10933;50.754;11.508;2023-07-31T13:32:29;1.40;;;1.17;;
21543;SDS011;10933;50.754;11.508;2023-07-31T13:34:55;1.20;;;1.10;;
21543;SDS011;10933;50.754;11.508;2023-07-31T13:37:21;1.05;;;0.98;;
21543;SDS011;10933;50.754;11.508;2023-07-31T13:39:48;1.38;;;1.10;;
21543;SDS011;10933;50.754;11.508;2023-07-31T13:42:14;1.38;;;1.15;;
21543;SDS011;10933;50.754;11.508;2023-07-31T13:44:40;1.33;;;1.13;;
21543;SDS011;10933;50.754;11.508;2023-07-31T13:47:07;1.92;;;1.40;;
21543;SDS011;10933;50.754;11.508;2023-07-31T13:49:34;1.45;;;1.35;;
21543;SDS011;10933;50.754;11.508;2023-07-31T13:52:01;1.15;;;1.02;;
21543;SDS011;10933;50.754;11.508;2023-07-31T13:54:27;1.33;;;1.10;;
21543;SDS011;10933;50.754;11.508;2023-07-31T13:56:54;1.30;;;1.20;;
21543;SDS011;10933;50.754;11.508;2023-07-31T13:59:20;1.30;;;1.20;;
21543;SDS011;10933;50.754;11.508;2023-07-31T14:01:47;2.00;;;1.35;;
21543;SDS011;10933;50.754;11.508;2023-07-31T14:04:13;1.33;;;1.23;;
21543;SDS011;10933;50.754;11.508;2023-07-31T14:06:39;1.27;;;1.17;;
21543;SDS011;10933;50.754;11.508;2023-07-31T14:09:05;1.23;;;1.13;;
21543;SDS011;10933;50.754;11.508;2023-07-31T14:11:31;3.10;;;1.45;;
21543;SDS011;10933;50.754;11.508;2023-07-31T14:13:58;1.38;;;1.27;;
21543;SDS011;10933;50.754;11.508;2023-07-31T14:16:24;2.13;;;1.60;;
21543;SDS011;10933;50.754;11.508;2023-07-31T14:18:50;1.58;;;1.35;;
21543;SDS011;10933;50.754;11.508;2023-07-31T14:21:18;1.67;;;1.58;;
21543;SDS011;10933;50.754;11.508;2023-07-31T14:23:44;1.50;;;1.38;;
21543;SDS011;10933;50.754;11.508;2023-07-31T14:26:10;1.50;;;1.40;;
21543;SDS011;10933;50.754;11.508;2023-07-31T14:28:37;1.58;;;1.15;;
21543;SDS011;10933;50.754;11.508;2023-07-31T14:31:03;5.75;;;1.60;;
21543;SDS011;10933;50.754;11.508;2023-07-31T14:33:29;1.60;;;1.50;;
21543;SDS011;10933;50.754;11.508;2023-07-31T14:35:55;1.98;;;1.50;;
21543;SDS011;10933;50.754;11.508;2023-07-31T14:38:21;1.70;;;1.33;;
21543;SDS011;10933;50.754;11.508;2023-07-31T14:40:47;2.00;;;1.80;;
21543;SDS011;10933;50.754;11.508;2023-07-31T14:43:14;1.63;;;1.52;;
21543;SDS011;10933;50.754;11.508;2023-07-31T14:45:40;1.77;;;1.40;;
21543;SDS011;10933;50.754;11.508;2023-07-31T14:48:07;1.95;;;1.58;;
21543;SDS011;10933;50.754;11.508;2023-07-31T14:50:33;2.45;;;1.58;;
21543;SDS011;10933;50.754;11.508;2023-07-31T14:52:59;2.08;;;1.50;;
21543;SDS011;10933;50.754;11.508;2023-07-31T14:55:25;1.65;;;1.55;;